Time;durP1;ratioP1;P1;durP2;ratioP2;P2;SDS_P1;SDS_P2;PMS_P1;PMS_P2;Temp;Humidity;BMP_temperature;BMP_pressure;BME280_temperature;BME280_humidity;BME280_pressure;Samples;Min_cycle;Max_cycle;Signal;HPM_P1;HPM_P2
2022/05/17 00:00:51;;;;;;;7.85;2.92;;;;;;;20.14;49.77;101922.31;5077469;28;20521;-64
2022/05/17 00:03:20;;;;;;;7.15;2.72;;;;;;;20.14;50.00;101923.13;5073000;28;20390;-64
2022/05/17 00:05:48;;;;;;;9.90;2.83;;;;;;;20.10;49.83;101919.28;5090620;28;20060;-63
2022/05/17 00:08:17;;;;;;;5.88;2.30;;;;;;;20.08;50.19;101920.63;5072697;28;20072;-63
2022/05/17 00:10:48;;;;;;;7.40;3.25;;;;;;;20.10;50.21;101929.38;5069284;28;20044;-63
2022/05/17 00:13:16;;;;;;;6.90;2.13;;;;;;;20.07;50.16;101921.69;5067130;28;20109;-64
2022/05/17 00:15:49;;;;;;;6.88;2.20;;;;;;;20.09;50.16;101933.19;5076543;28;20079;-63
2022/05/17 00:18:19;;;;;;;9.45;2.83;;;;;;;20.06;50.29;101928.25;5068065;28;20075;-63
2022/05/17 00:20:48;;;;;;;4.32;2.10;;;;;;;20.05;50.36;101927.41;5073468;28;20481;-64
2022/05/17 00:23:16;;;;;;;8.07;2.50;;;;;;;20.04;50.31;101927.69;5079171;28;20049;-63
2022/05/17 00:25:47;;;;;;;11.63;2.65;;;;;;;20.02;50.59;101924.38;5074617;28;20049;-63
2022/05/17 00:28:15;;;;;;;8.20;3.05;;;;;;;20.01;50.57;101929.03;5075671;28;20080;-63
2022/05/17 00:30:44;;;;;;;6.10;2.72;;;;;;;19.89;50.57;101905.69;5077134;28;20172;-63
2022/05/17 00:33:12;;;;;;;11.60;2.78;;;;;;;19.97;50.63;101918.88;5080815;28;20057;-64
2022/05/17 00:35:39;;;;;;;5.25;2.30;;;;;;;19.96;50.27;101922.69;5078247;28;20072;-64
2022/05/17 00:38:09;;;;;;;9.70;2.75;;;;;;;19.94;50.36;101906.56;5078679;28;20092;-64
2022/05/17 00:40:36;;;;;;;9.63;3.33;;;;;;;19.93;50.49;101917.75;5080656;28;20048;-64
2022/05/17 00:43:07;;;;;;;10.13;3.22;;;;;;;19.89;50.41;101905.69;5085227;28;20237;-64
2022/05/17 00:45:36;;;;;;;5.95;2.50;;;;;;;19.91;50.60;101909.00;5074328;28;20048;-64
2022/05/17 00:48:05;;;;;;;7.60;2.90;;;;;;;19.91;50.58;101911.72;5074598;28;20135;-64
2022/05/17 00:50:35;;;;;;;7.40;3.00;;;;;;;19.85;50.60;101910.84;5082399;28;20090;-64
2022/05/17 00:53:08;;;;;;;8.07;2.53;;;;;;;19.86;50.71;101912.50;5077120;28;20068;-64
2022/05/17 00:55:40;;;;;;;6.20;2.60;;;;;;;19.85;50.62;101905.41;5069302;28;20049;-64
2022/05/17 00:58:12;;;;;;;8.30;2.60;;;;;;;19.84;50.78;101906.47;5079359;28;20052;-64
2022/05/17 01:00:45;;;;;;;11.20;3.67;;;;;;;19.82;50.63;101905.91;5070753;28;20398;-64
2022/05/17 01:03:17;;;;;;;7.55;2.97;;;;;;;19.81;50.63;101907.81;5075837;28;20040;-65
2022/05/17 01:05:50;;;;;;;10.13;3.05;;;;;;;19.80;50.73;101902.63;5071111;28;20084;-64
2022/05/17 01:08:19;;;;;;;5.95;2.45;;;;;;;19.78;50.71;101907.50;5073441;28;20071;-65
2022/05/17 01:10:48;;;;;;;11.07;2.72;;;;;;;19.76;50.65;101904.22;5069707;28;20044;-63
2022/05/17 01:16:03;;;;;;;8.85;3.20;;;;;;;19.72;50.64;101890.25;5052790;28;20158;-63
2022/05/17 01:18:34;;;;;;;5.50;2.53;;;;;;;19.69;50.58;101888.06;5076558;28;20048;-63
2022/05/17 01:21:03;;;;;;;8.80;3.00;;;;;;;19.68;50.95;101901.94;5069883;28;20064;-63
2022/05/17 01:23:31;;;;;;;5.00;2.92;;;;;;;19.66;50.67;101891.28;5080075;28;20341;-64
2022/05/17 01:25:59;;;;;;;8.32;2.80;;;;;;;19.65;50.78;101895.09;5078643;28;20056;-64
2022/05/17 01:28:30;;;;;;;7.55;2.90;;;;;;;19.64;50.53;101892.63;5073295;28;20139;-64
2022/05/17 01:31:03;;;;;;;5.22;2.53;;;;;;;19.60;50.63;101895.03;5079054;28;20541;-63
2022/05/17 01:33:33;;;;;;;6.47;2.25;;;;;;;19.59;50.64;101898.84;5084432;28;20048;-63
2022/05/17 01:36:04;;;;;;;6.50;2.60;;;;;;;19.59;50.76;101895.31;5076697;28;20128;-63
2022/05/17 01:38:31;;;;;;;8.82;3.05;;;;;;;19.57;50.65;101895.56;5078670;28;20087;-63
2022/05/17 01:40:59;;;;;;;6.72;3.05;;;;;;;19.55;50.68;101896.88;5081866;28;20151;-63
2022/05/17 01:43:27;;;;;;;7.28;2.97;;;;;;;19.55;50.79;101900.44;5073160;28;20096;-63
2022/05/17 01:45:55;;;;;;;9.45;2.70;;;;;;;19.53;50.77;101894.41;5073131;28;20116;-64
2022/05/17 01:48:23;;;;;;;7.68;2.70;;;;;;;19.51;50.68;101888.38;5079293;28;20062;-63
2022/05/17 01:50:51;;;;;;;6.57;2.70;;;;;;;19.49;50.81;101893.25;5068881;28;20053;-64
2022/05/17 01:53:20;;;;;;;6.18;2.78;;;;;;;19.48;50.92;101891.59;5074230;28;20048;-64
2022/05/17 01:55:47;;;;;;;5.75;2.80;;;;;;;19.46;51.08;101891.88;5076945;28;20045;-64
2022/05/17 01:58:15;;;;;;;4.35;2.45;;;;;;;19.45;50.97;101890.22;5078222;28;20084;-63
2022/05/17 02:00:44;;;;;;;9.95;2.85;;;;;;;19.44;51.03;101891.28;5071656;28;20062;-64
2022/05/17 02:03:12;;;;;;;5.53;2.50;;;;;;;19.42;51.05;101895.34;5065515;28;20112;-64
2022/05/17 02:05:40;;;;;;;8.75;2.90;;;;;;;19.43;51.08;101897.00;5070773;28;20036;-64
2022/05/17 02:08:08;;;;;;;8.38;2.60;;;;;;;19.40;51.06;101897.50;5079781;28;20079;-64
2022/05/17 02:10:37;;;;;;;8.05;2.85;;;;;;;19.41;50.98;101904.63;5076058;28;20045;-64
2022/05/17 02:13:05;;;;;;;7.50;3.33;;;;;;;19.39;51.11;101904.88;5079336;28;20080;-64
2022/05/17 02:15:32;;;;;;;6.65;2.53;;;;;;;19.38;51.00;101900.50;5072720;28;20044;-64
2022/05/17 02:18:00;;;;;;;7.55;2.65;;;;;;;19.34;51.09;101888.44;5081711;28;20055;-64
2022/05/17 02:20:28;;;;;;;11.52;3.90;;;;;;;19.33;51.32;101894.97;5073910;28;20100;-64
2022/05/17 02:22:56;;;;;;;7.30;2.78;;;;;;;19.34;51.00;101902.06;5077135;28;20044;-64
2022/05/17 02:25:24;;;;;;;7.15;3.15;;;;;;;19.33;51.31;101897.72;5081312;28;20053;-63
2022/05/17 02:27:53;;;;;;;8.55;2.53;;;;;;;19.30;51.11;101895.50;5065360;28;20088;-64
2022/05/17 02:30:21;;;;;;;10.23;3.03;;;;;;;19.32;51.26;101904.25;5079388;28;20044;-63
2022/05/17 02:32:49;;;;;;;8.77;3.30;;;;;;;19.32;51.02;101900.69;5071243;28;20049;-63
2022/05/17 02:35:17;;;;;;;7.70;3.00;;;;;;;19.30;51.11;101898.22;5079005;28;20090;-64
2022/05/17 02:37:45;;;;;;;7.15;2.72;;;;;;;19.29;51.27;101893.84;5080086;28;20064;-64
2022/05/17 02:40:13;;;;;;;6.10;2.40;;;;;;;19.28;51.46;101897.66;5072252;28;20101;-64
2022/05/17 02:42:41;;;;;;;12.18;3.22;;;;;;;19.28;51.59;101899.53;5073260;28;20525;-64
2022/05/17 02:45:11;;;;;;;8.55;3.17;;;;;;;19.26;51.50;101904.44;5066035;28;20110;-64
2022/05/17 02:47:39;;;;;;;6.78;2.85;;;;;;;19.26;51.62;101905.25;5080735;28;20189;-64
2022/05/17 02:50:09;;;;;;;4.65;2.50;;;;;;;19.24;51.57;101904.69;5082727;28;20079;-63
2022/05/17 02:52:37;;;;;;;5.60;2.47;;;;;;;19.24;51.45;101906.59;5070102;28;20155;-64
2022/05/17 02:55:06;;;;;;;5.95;2.75;;;;;;;19.23;51.73;101904.94;5074242;28;20179;-63
2022/05/17 02:57:34;;;;;;;6.35;2.75;;;;;;;19.23;51.73;101913.94;5079209;28;20090;-64
2022/05/17 03:00:02;;;;;;;7.40;3.53;;;;;;;19.21;51.62;101913.38;5077852;28;20048;-64
2022/05/17 03:02:31;;;;;;;5.63;2.53;;;;;;;19.21;51.62;101918.00;5069930;28;20443;-64
2022/05/17 03:04:59;;;;;;;6.10;2.53;;;;;;;19.18;51.66;101906.53;5077816;28;20048;-63
2022/05/17 03:07:27;;;;;;;7.85;2.70;;;;;;;19.17;51.58;101917.66;5079491;28;20075;-64
2022/05/17 03:09:55;;;;;;;9.88;3.00;;;;;;;19.14;51.85;101920.91;5073931;28;20060;-64
2022/05/17 03:12:22;;;;;;;6.65;2.55;;;;;;;19.14;51.58;101923.63;5076217;28;20451;-64
2022/05/17 03:14:50;;;;;;;5.07;2.58;;;;;;;19.13;51.49;101927.44;5074911;28;20044;-64
2022/05/17 03:17:18;;;;;;;6.47;2.45;;;;;;;19.06;51.62;101911.31;5070068;28;20084;-64
2022/05/17 03:19:48;;;;;;;7.20;3.08;;;;;;;19.12;51.67;101931.22;5072473;28;20108;-64
2022/05/17 03:22:16;;;;;;;7.22;2.83;;;;;;;19.10;51.50;101919.75;5073879;28;20080;-64
2022/05/17 03:24:44;;;;;;;8.88;3.00;;;;;;;19.08;51.65;101922.75;5069269;28;20127;-64
2022/05/17 03:27:32;;;;;;;6.15;3.00;;;;;;;19.07;51.73;101920.25;5077520;28;20132;-64
2022/05/17 03:29:59;;;;;;;9.07;2.55;;;;;;;19.06;51.91;101926.81;5076660;28;20053;-63
2022/05/17 03:32:27;;;;;;;5.57;2.20;;;;;;;19.04;51.49;101916.19;5079022;28;20055;-63
2022/05/17 03:34:56;;;;;;;5.53;2.50;;;;;;;19.03;51.85;101924.59;5079096;28;20080;-64
2022/05/17 03:37:24;;;;;;;5.22;2.80;;;;;;;19.03;51.58;101924.59;5070250;28;20159;-64
2022/05/17 03:39:52;;;;;;;6.40;2.25;;;;;;;19.01;51.61;101924.84;5079309;28;20102;-64
2022/05/17 03:42:20;;;;;;;9.63;2.67;;;;;;;19.01;51.65;101922.13;5076689;28;20052;-64
2022/05/17 03:44:48;;;;;;;5.60;3.00;;;;;;;18.99;51.76;101923.47;5066820;28;20064;-63
2022/05/17 03:47:16;;;;;;;7.10;3.13;;;;;;;18.91;51.55;101916.53;5081392;28;20051;-63
2022/05/17 03:49:44;;;;;;;6.65;2.63;;;;;;;18.97;51.72;101933.78;5074175;28;20044;-64
2022/05/17 03:52:13;;;;;;;4.63;2.33;;;;;;;18.87;51.87;101920.03;5075818;28;20239;-64
2022/05/17 03:54:41;;;;;;;8.30;2.65;;;;;;;18.96;51.84;101938.41;5074782;28;20048;-63
2022/05/17 03:57:09;;;;;;;9.43;2.55;;;;;;;18.91;52.04;101927.44;5084544;28;20056;-61
2022/05/17 03:59:42;;;;;;;12.52;3.55;;;;;;;18.94;51.84;101931.56;5086128;28;20098;-64
2022/05/17 04:02:10;;;;;;;5.30;2.40;;;;;;;18.94;51.90;101931.56;5082429;28;20052;-63
2022/05/17 04:04:38;;;;;;;6.13;2.75;;;;;;;18.92;52.13;101936.44;5082121;28;20068;-64
2022/05/17 04:07:06;;;;;;;4.78;2.33;;;;;;;18.92;51.91;101934.53;5072528;28;20044;-64
2022/05/17 04:09:35;;;;;;;5.75;2.88;;;;;;;18.91;52.12;101932.88;5079077;28;20088;-64
2022/05/17 04:12:03;;;;;;;6.43;2.63;;;;;;;18.90;51.95;101933.13;5075473;28;20109;-64
2022/05/17 04:14:31;;;;;;;7.65;2.63;;;;;;;18.89;52.05;101942.38;5073270;28;20064;-64
2022/05/17 04:16:59;;;;;;;6.80;2.88;;;;;;;18.77;52.18;101909.81;5080739;28;20064;-64
2022/05/17 04:19:26;;;;;;;11.77;2.28;;;;;;;18.87;52.04;101937.19;5081873;28;20083;-64
2022/05/17 04:21:54;;;;;;;6.93;2.60;;;;;;;18.87;52.20;101933.63;5075050;28;20080;-64
2022/05/17 04:24:22;;;;;;;4.38;2.58;;;;;;;18.85;52.24;101929.25;5070383;28;20132;-64
2022/05/17 04:26:51;;;;;;;6.20;2.25;;;;;;;18.85;52.32;101936.63;5075552;28;20080;-64
2022/05/17 04:29:19;;;;;;;6.72;2.63;;;;;;;18.83;52.24;101933.31;5075857;28;20052;-64
2022/05/17 04:31:47;;;;;;;5.38;2.45;;;;;;;18.83;52.33;101938.75;5083909;28;20084;-63
2022/05/17 04:34:14;;;;;;;6.25;3.00;;;;;;;18.82;52.45;101939.84;5074605;28;20144;-64
2022/05/17 04:36:42;;;;;;;7.95;2.70;;;;;;;18.82;52.24;101940.66;5070627;28;20116;-64
2022/05/17 04:39:10;;;;;;;7.78;3.30;;;;;;;18.81;52.25;101939.00;5076727;28;20052;-64
2022/05/17 04:41:38;;;;;;;6.65;2.85;;;;;;;18.80;52.38;101948.25;5084555;28;20067;-63
2022/05/17 04:44:07;;;;;;;5.45;2.38;;;;;;;18.74;52.46;101941.09;5080533;28;20104;-63
2022/05/17 04:46:35;;;;;;;6.35;2.78;;;;;;;18.78;52.44;101947.69;5084833;28;20131;-63
2022/05/17 04:49:02;;;;;;;5.00;2.63;;;;;;;18.78;52.47;101947.69;5077253;28;20071;-63
2022/05/17 04:51:32;;;;;;;6.47;2.30;;;;;;;18.78;52.63;101949.59;5079521;28;20076;-64
2022/05/17 04:54:00;;;;;;;8.18;3.28;;;;;;;18.77;52.38;101951.47;5069894;28;20045;-63
2022/05/17 04:56:28;;;;;;;6.18;2.60;;;;;;;18.75;52.47;101945.47;5082758;28;20083;-63
2022/05/17 04:58:56;;;;;;;6.35;2.60;;;;;;;18.75;52.35;101941.91;5074192;28;20057;-63
2022/05/17 05:01:25;;;;;;;5.35;2.35;;;;;;;18.75;52.32;101939.19;5077670;28;20486;-63
2022/05/17 05:03:53;;;;;;;5.57;2.90;;;;;;;18.74;52.50;101951.16;5078606;28;20489;-65
2022/05/17 05:06:21;;;;;;;7.65;3.08;;;;;;;18.72;52.52;101947.84;5077192;28;20045;-63
2022/05/17 05:08:48;;;;;;;7.07;3.15;;;;;;;18.72;52.40;101948.69;5083930;28;20417;-64
2022/05/17 05:11:16;;;;;;;6.90;3.03;;;;;;;18.71;52.37;101960.66;5085069;28;20084;-62
2022/05/17 05:13:45;;;;;;;10.15;3.10;;;;;;;18.60;52.31;101942.47;4721268;28;10000478;-63
2022/05/17 05:16:14;;;;;;;5.18;2.72;;;;;;;18.69;52.38;101968.25;5067299;28;20079;-63
2022/05/17 05:18:43;;;;;;;5.90;2.70;;;;;;;18.69;52.35;101973.69;5076003;28;20052;-62
2022/05/17 05:21:13;;;;;;;14.23;3.35;;;;;;;18.67;53.03;101975.84;5066818;28;20367;-62
2022/05/17 05:23:43;;;;;;;12.13;3.20;;;;;;;18.67;53.78;101984.00;5072376;28;20112;-61
2022/05/17 05:26:13;;;;;;;9.88;2.65;;;;;;;18.66;53.37;101974.19;5069046;28;20088;-61
2022/05/17 05:28:43;;;;;;;13.23;2.92;;;;;;;18.67;53.19;101973.09;5062926;28;20108;-62
2022/05/17 05:31:17;;;;;;;7.88;3.05;;;;;;;18.68;53.30;101974.75;5063701;28;20051;-62
2022/05/17 05:33:46;;;;;;;10.15;2.83;;;;;;;18.67;53.12;101975.00;5070235;28;20048;-63
2022/05/17 05:36:14;;;;;;;9.48;3.17;;;;;;;18.67;53.01;101983.19;5075280;28;20561;-62
2022/05/17 05:38:42;;;;;;;5.75;2.80;;;;;;;18.67;53.03;101986.72;5062478;28;20171;-62
2022/05/17 05:41:10;;;;;;;9.25;2.90;;;;;;;18.67;52.88;101991.34;5070819;28;20150;-62
2022/05/17 05:43:38;;;;;;;6.05;2.75;;;;;;;18.67;52.64;101989.44;5076807;28;20099;-63
2022/05/17 05:46:06;;;;;;;6.63;2.50;;;;;;;18.66;52.68;101989.69;5080063;28;20068;-63
2022/05/17 05:48:34;;;;;;;8.73;3.00;;;;;;;18.67;52.62;102002.25;5078182;28;20075;-62
2022/05/17 05:51:04;;;;;;;12.32;3.30;;;;;;;18.63;52.56;101999.19;5071876;28;20040;-63
2022/05/17 05:53:32;;;;;;;12.27;2.58;;;;;;;18.67;52.62;101994.91;5076809;28;20083;-63
2022/05/17 05:56:02;;;;;;;5.40;2.72;;;;;;;18.67;52.68;101992.16;5078833;28;20048;-62
2022/05/17 05:58:31;;;;;;;5.78;2.60;;;;;;;18.67;52.63;101999.50;5070150;28;20088;-62
2022/05/17 06:00:59;;;;;;;9.07;2.97;;;;;;;18.68;52.61;101993.00;5073636;28;20064;-63
2022/05/17 06:03:28;;;;;;;6.65;2.65;;;;;;;18.68;52.56;101990.28;5080267;28;20076;-62
2022/05/17 06:05:56;;;;;;;8.27;2.83;;;;;;;18.67;52.67;101992.16;5068363;28;20087;-62
2022/05/17 06:08:25;;;;;;;7.28;2.70;;;;;;;18.67;52.67;101989.44;5072845;28;20080;-63
2022/05/17 06:10:53;;;;;;;6.32;2.60;;;;;;;18.63;52.29;101987.47;5067478;28;20127;-63
2022/05/17 06:13:22;;;;;;;8.63;2.75;;;;;;;18.68;52.41;101998.44;5069714;28;20139;-63
2022/05/17 06:15:52;;;;;;;6.97;3.10;;;;;;;18.68;52.66;101999.28;5072865;28;20078;-65
2022/05/17 06:18:21;;;;;;;6.85;2.78;;;;;;;18.68;52.50;101998.44;5075912;28;20059;-63
2022/05/17 06:20:50;;;;;;;7.55;3.30;;;;;;;18.68;52.39;101995.72;5083824;28;20135;-63
2022/05/17 06:23:19;;;;;;;6.82;2.17;;;;;;;18.63;52.41;101988.28;5081714;28;20064;-62
2022/05/17 06:25:48;;;;;;;6.07;2.75;;;;;;;18.69;52.66;102000.09;5077393;28;20471;-62
2022/05/17 06:28:16;;;;;;;7.80;2.45;;;;;;;18.69;52.59;102002.81;5066456;28;20083;-62
2022/05/17 06:30:44;;;;;;;8.27;2.75;;;;;;;18.69;52.48;102006.38;5083439;28;20048;-63
2022/05/17 06:33:13;;;;;;;8.05;3.22;;;;;;;18.67;52.44;102000.34;5083158;28;20064;-63
2022/05/17 06:35:43;;;;;;;7.05;3.13;;;;;;;18.68;52.35;102004.72;5076009;28;20068;-63
2022/05/17 06:38:11;;;;;;;6.03;3.00;;;;;;;18.59;52.48;101986.28;5075234;28;20126;-63
2022/05/17 06:40:39;;;;;;;5.95;2.42;;;;;;;18.70;52.31;102004.47;5084406;28;20354;-63
2022/05/17 06:43:09;;;;;;;7.28;2.33;;;;;;;18.70;52.42;102007.19;5069906;28;20177;-63
2022/05/17 06:45:37;;;;;;;6.38;2.75;;;;;;;18.69;52.49;102005.53;5065899;28;20111;-63
2022/05/17 06:48:06;;;;;;;8.35;2.80;;;;;;;18.70;52.38;102005.28;5066210;28;20112;-64
2022/05/17 06:50:34;;;;;;;5.82;2.95;;;;;;;18.66;52.79;102012.31;5072520;28;20097;-62
2022/05/17 06:53:03;;;;;;;7.38;2.85;;;;;;;18.68;52.75;102006.63;5071787;28;20071;-62
2022/05/17 06:55:32;;;;;;;8.52;2.50;;;;;;;18.69;52.81;102011.00;5076979;28;20079;-63
2022/05/17 06:57:59;;;;;;;6.43;2.65;;;;;;;18.68;52.91;102022.94;5062791;28;20087;-62
2022/05/17 07:00:31;;;;;;;5.45;2.83;;;;;;;18.58;52.71;102011.84;5073039;28;20048;-64
2022/05/17 07:02:59;;;;;;;7.72;2.63;;;;;;;18.66;52.57;102022.38;5072133;28;20438;-63
2022/05/17 07:05:28;;;;;;;7.22;2.78;;;;;;;18.62;52.78;102016.59;5072719;28;20140;-64
2022/05/17 07:08:01;;;;;;;7.72;2.75;;;;;;;18.65;52.69;102018.81;5064163;28;20045;-61
2022/05/17 07:13:15;;;;;;;4.95;2.65;;;;;;;18.65;52.81;102029.72;5073326;28;20044;-63
2022/05/17 07:15:47;;;;;;;6.47;2.92;;;;;;;18.54;52.88;102004.19;5071064;28;20048;-63
2022/05/17 07:18:17;;;;;;;7.78;2.72;;;;;;;18.65;52.82;102018.00;5078339;28;20155;-64
2022/05/17 07:20:45;;;;;;;8.57;3.20;;;;;;;18.63;53.02;102022.88;5068484;28;20151;-63
2022/05/17 07:23:15;;;;;;;6.18;2.90;;;;;;;18.65;53.07;102015.28;5069846;28;20049;-64
2022/05/17 07:25:44;;;;;;;4.95;2.55;;;;;;;18.65;52.99;102018.00;5075749;28;20094;-63
2022/05/17 07:28:17;;;;;;;8.68;3.83;;;;;;;18.65;53.26;102020.72;5073231;28;20485;-65
2022/05/17 07:30:46;;;;;;;5.28;2.60;;;;;;;18.64;53.73;102025.34;5069720;28;20583;-65
2022/05/17 07:33:14;;;;;;;12.50;3.63;;;;;;;18.65;53.58;102020.72;5072139;28;20128;-65
2022/05/17 07:35:42;;;;;;;6.28;2.88;;;;;;;18.65;53.25;102021.56;5082485;28;20076;-64
2022/05/17 07:38:10;;;;;;;5.43;2.45;;;;;;;18.65;53.14;102027.00;5076734;28;20048;-64
2022/05/17 07:40:38;;;;;;;5.43;2.97;;;;;;;18.65;53.08;102029.72;5082301;28;20048;-65
2022/05/17 07:43:06;;;;;;;6.00;2.75;;;;;;;18.66;53.22;102027.81;5078208;28;20060;-64
2022/05/17 07:45:34;;;;;;;6.25;2.97;;;;;;;18.66;53.34;102028.66;5082423;28;20052;-64
2022/05/17 07:48:04;;;;;;;6.88;2.88;;;;;;;18.63;52.96;102020.16;5078787;28;20079;-63
2022/05/17 07:50:32;;;;;;;7.60;2.80;;;;;;;18.67;53.06;102033.03;5078550;28;20052;-64
2022/05/17 07:53:06;;;;;;;7.22;2.60;;;;;;;18.68;53.28;102029.22;5073535;28;20076;-64
2022/05/17 07:55:35;;;;;;;6.32;3.00;;;;;;;18.68;53.08;102023.78;5062707;28;20057;-65
2022/05/17 07:58:03;;;;;;;7.63;2.70;;;;;;;18.68;52.74;102031.94;5081659;28;20060;-64
2022/05/17 08:00:32;;;;;;;6.40;2.60;;;;;;;18.66;52.68;102031.38;5075733;28;20158;-64
2022/05/17 08:03:00;;;;;;;7.38;2.72;;;;;;;18.68;53.05;102034.66;5079566;28;20063;-64
2022/05/17 08:05:30;;;;;;;6.05;2.50;;;;;;;18.68;53.15;102033.84;5068587;28;20126;-65
2022/05/17 08:07:57;;;;;;;5.50;2.75;;;;;;;18.69;52.84;102036.31;5077580;28;20074;-65
2022/05/17 08:10:25;;;;;;;5.13;2.60;;;;;;;18.71;52.85;102041.53;5082179;28;20075;-65
2022/05/17 08:12:53;;;;;;;6.00;2.50;;;;;;;18.70;52.96;102043.41;5077469;28;20060;-65
2022/05/17 08:15:23;;;;;;;7.28;2.70;;;;;;;18.71;52.73;102042.34;5069772;28;20059;-65
2022/05/17 08:17:56;;;;;;;7.88;2.42;;;;;;;18.71;52.65;102039.63;5079490;28;20136;-65
2022/05/17 08:20:24;;;;;;;6.63;2.42;;;;;;;18.73;52.84;102047.53;5078136;28;20056;-65
2022/05/17 08:22:53;;;;;;;4.53;2.58;;;;;;;18.74;52.69;102049.19;5067967;28;20072;-65
2022/05/17 08:28:08;;;;;;;7.72;3.40;;;;;;;18.74;52.88;102041.84;5069420;28;20057;-64
2022/05/17 08:30:36;;;;;;;6.95;2.55;;;;;;;18.75;52.77;102039.97;5071555;28;20087;-64
2022/05/17 08:33:17;;;;;;;4.93;2.20;;;;;;;18.73;52.77;102031.22;5067981;28;20159;-64
2022/05/17 08:35:49;;;;;;;7.13;2.67;;;;;;;18.75;52.67;102040.78;5067402;28;20055;-64
2022/05/17 08:38:21;;;;;;;5.40;2.50;;;;;;;18.77;52.57;102040.53;5069306;28;20044;-64
2022/05/17 08:40:57;;;;;;;4.65;2.47;;;;;;;18.75;52.93;102031.78;5077631;28;20056;-64
2022/05/17 08:43:29;;;;;;;3.90;2.25;;;;;;;18.77;53.11;102032.38;5084697;28;20090;-64
2022/05/17 08:46:14;;;;;;;6.57;2.33;;;;;;;18.78;53.46;102031.28;5085677;28;20079;-64
2022/05/17 08:48:50;;;;;;;8.27;2.67;;;;;;;18.78;53.95;102034.84;5067915;28;20095;-64
2022/05/17 08:51:29;;;;;;;7.45;2.97;;;;;;;18.78;53.88;102034.84;5077055;28;20053;-64
2022/05/17 08:53:58;;;;;;;6.07;2.70;;;;;;;18.78;54.49;102032.13;5065727;28;20083;-64
2022/05/17 08:56:29;;;;;;;4.65;2.70;;;;;;;18.79;54.46;102036.50;5077176;28;20568;-64
2022/05/17 08:58:57;;;;;;;5.68;2.47;;;;;;;18.79;53.88;102032.94;5079975;28;20044;-64
2022/05/17 09:01:33;;;;;;;5.75;2.58;;;;;;;18.67;54.20;102019.41;5074037;28;20538;-64
2022/05/17 09:04:16;;;;;;;8.77;2.70;;;;;;;18.81;54.41;102045.25;5068103;28;20051;-63
2022/05/17 09:06:53;;;;;;;8.95;2.88;;;;;;;18.82;54.50;102043.34;5082512;28;20401;-64
2022/05/17 09:09:28;;;;;;;7.53;2.58;;;;;;;18.83;54.03;102042.28;5071403;28;20182;-64
2022/05/17 09:12:00;;;;;;;4.18;2.30;;;;;;;18.83;54.03;102045.81;5080820;28;20122;-65
2022/05/17 09:14:33;;;;;;;8.40;2.80;;;;;;;18.83;53.43;102039.53;5073639;28;20036;-64
2022/05/17 09:17:05;;;;;;;5.30;2.40;;;;;;;18.79;53.60;102030.22;5084907;28;20076;-63
2022/05/17 09:19:33;;;;;;;4.43;2.28;;;;;;;18.84;53.39;102043.91;5084429;28;20072;-64
2022/05/17 09:22:02;;;;;;;3.90;2.10;;;;;;;18.86;53.37;102044.50;5077293;28;20049;-64
2022/05/17 09:24:38;;;;;;;3.55;1.92;;;;;;;18.87;53.28;102045.31;5064755;28;20079;-64
2022/05/17 09:27:08;;;;;;;5.47;2.22;;;;;;;18.88;53.18;102045.06;5083519;28;20048;-65
2022/05/17 09:29:39;;;;;;;6.20;2.58;;;;;;;18.86;53.08;102039.06;5084597;28;20056;-65
2022/05/17 09:32:11;;;;;;;4.53;2.42;;;;;;;18.90;53.64;102037.47;5068142;28;20130;-65
2022/05/17 09:34:43;;;;;;;3.47;2.20;;;;;;;18.90;53.64;102028.47;5077969;28;20045;-65
2022/05/17 09:37:15;;;;;;;4.00;2.00;;;;;;;18.88;53.73;102014.28;5080969;28;20045;-66
2022/05/17 09:39:48;;;;;;;6.03;2.65;;;;;;;18.92;53.68;102024.44;5079718;28;20131;-65
2022/05/17 09:42:24;;;;;;;6.82;2.53;;;;;;;18.92;54.28;102015.44;5084033;28;20044;-65
2022/05/17 09:44:56;;;;;;;5.47;2.75;;;;;;;18.93;54.88;102020.63;5078338;28;20084;-66
2022/05/17 09:47:30;;;;;;;8.18;3.00;;;;;;;18.94;55.21;102007.84;5064153;28;20049;-65
2022/05/17 09:53:00;;;;;;;7.55;2.63;;;;;;;18.94;55.92;102003.22;5082874;28;20049;-65
2022/05/17 09:55:31;;;;;;;9.30;2.80;;;;;;;18.95;55.73;102001.31;5082108;28;20045;-65
2022/05/17 09:58:02;;;;;;;6.18;2.53;;;;;;;18.90;55.56;101993.91;5070370;28;20079;-65
2022/05/17 10:00:40;;;;;;;6.30;2.35;;;;;;;18.98;55.81;102003.53;5084469;28;20048;-65
2022/05/17 10:03:29;;;;;;;6.45;3.00;;;;;;;18.97;54.95;101996.44;5080350;28;20167;-65
2022/05/17 10:05:59;;;;;;;4.72;2.40;;;;;;;18.98;54.97;101996.19;5076146;28;20064;-65
2022/05/17 10:08:34;;;;;;;7.32;2.55;;;;;;;18.99;55.11;101986.94;5062774;28;20076;-65
2022/05/17 10:11:12;;;;;;;4.43;2.15;;;;;;;19.01;54.82;101987.53;5082086;28;20052;-65
2022/05/17 10:13:51;;;;;;;5.32;2.60;;;;;;;19.04;55.17;101991.66;5072705;28;20075;-65
2022/05/17 10:16:27;;;;;;;3.67;2.10;;;;;;;19.04;55.32;101978.03;5070879;28;20053;-65
2022/05/17 10:18:58;;;;;;;;;;;;;;;19.09;55.47;101978.06;5069967;28;20116;-65
2022/05/17 10:21:32;;;;;;;4.00;2.20;;;;;;;19.10;55.03;101974.25;5079231;28;19980;-64
2022/05/17 10:24:07;;;;;;;5.13;2.65;;;;;;;19.12;54.90;101974.84;5081144;28;20083;-65
2022/05/17 10:26:42;;;;;;;6.95;2.75;;;;;;;19.15;55.34;101975.16;5080629;28;20044;-65
2022/05/17 10:29:17;;;;;;;6.93;2.78;;;;;;;19.17;55.53;101961.28;5069994;28;20072;-65
2022/05/17 10:31:56;;;;;;;6.88;2.58;;;;;;;19.20;55.13;101971.69;5067726;28;20067;-65
2022/05/17 10:34:34;;;;;;;7.68;2.53;;;;;;;19.23;55.03;101978.53;5062527;28;20083;-65
2022/05/17 10:37:06;;;;;;;5.63;2.10;;;;;;;19.24;54.94;101970.09;5079129;28;20045;-64
2022/05/17 10:39:40;;;;;;;5.18;2.80;;;;;;;19.26;54.76;101962.50;5082561;28;20094;-65
2022/05/17 10:42:09;;;;;;;5.13;1.95;;;;;;;19.31;54.72;101959.84;5079542;28;20040;-65
2022/05/17 10:44:40;;;;;;;6.30;2.08;;;;;;;19.33;54.96;101962.31;5077989;28;20095;-65
2022/05/17 10:47:15;;;;;;;5.20;1.88;;;;;;;19.33;54.83;101944.03;5081725;28;20052;-65
2022/05/17 10:49:58;;;;;;;6.28;2.22;;;;;;;19.39;55.37;101962.13;5066546;28;20083;-66
2022/05/17 10:52:36;;;;;;;5.05;2.30;;;;;;;19.43;55.19;101956.97;5075389;28;20044;-64
2022/05/17 10:55:14;;;;;;;4.55;2.05;;;;;;;19.44;55.14;101950.44;5083165;28;20076;-65
2022/05/17 10:57:54;;;;;;;3.55;1.75;;;;;;;19.45;55.07;101949.38;5080577;28;20044;-65
2022/05/17 11:00:27;;;;;;;4.03;1.80;;;;;;;19.48;54.99;101949.69;5072988;28;20083;-65
2022/05/17 11:03:06;;;;;;;5.40;2.47;;;;;;;19.52;55.25;101952.75;5082601;28;20083;-66
2022/05/17 11:05:55;;;;;;;5.03;1.83;;;;;;;19.56;55.27;101951.19;5075922;28;20041;-65
2022/05/17 11:08:31;;;;;;;13.15;2.72;;;;;;;19.59;55.15;101947.13;5079480;28;20071;-65
2022/05/17 11:11:09;;;;;;;6.53;2.70;;;;;;;19.60;55.42;101941.41;5080861;28;20067;-65
2022/05/17 11:13:46;;;;;;;6.50;2.33;;;;;;;19.62;55.65;101935.69;5072344;28;20047;-64
2022/05/17 11:16:23;;;;;;;3.70;1.85;;;;;;;19.66;55.59;101937.66;5063541;28;20080;-65
2022/05/17 11:18:56;;;;;;;6.38;2.65;;;;;;;19.69;55.73;101928.97;5077215;28;20056;-64
2022/05/17 11:21:28;;;;;;;5.25;2.10;;;;;;;19.70;55.97;101916.16;5074036;28;20080;-65
2022/05/17 11:24:02;;;;;;;6.70;2.60;;;;;;;19.76;55.88;101915.94;5078615;28;20103;-64
2022/05/17 11:27:01;;;;;;;5.55;2.30;;;;;;;19.80;55.93;101906.16;5072428;28;20079;-64
2022/05/17 11:29:59;;;;;;;7.38;2.80;;;;;;;19.87;55.92;101907.88;5066950;28;20052;-65
2022/05/17 11:32:28;;;;;;;;;;;;;;;19.91;55.97;101904.38;5073830;28;20044;-64
2022/05/17 11:34:57;;;;;;;6.70;2.15;;;;;;;19.94;56.18;101903.84;5082035;28;19956;-66
2022/05/17 11:37:58;;;;;;;4.78;2.00;;;;;;;20.03;56.08;101902.28;5067424;28;20398;-64
2022/05/17 11:40:53;;;;;;;5.43;1.60;;;;;;;20.08;55.75;101904.25;5077369;28;20093;-64
2022/05/17 11:43:43;;;;;;;22.33;2.17;;;;;;;20.22;54.64;101880.06;5076240;28;20477;-66
2022/05/17 11:46:41;;;;;;;12.93;2.33;;;;;;;20.41;55.04;101895.00;5074363;28;20528;-65
2022/05/17 11:49:29;;;;;;;8.00;1.80;;;;;;;20.46;54.69;101884.09;5065829;28;20083;-65
2022/05/17 11:52:33;;;;;;;8.38;2.20;;;;;;;20.55;54.51;101877.06;5080519;28;20040;-65